메인 페이지
METAR-TAF:

METAR-TAF

공항 :

Eagle, 콜로라도, 미국

위도: 39-39N, 경도: 106-55W, 고도: 1993m

현재 날씨관측

예보는 21분 전, 08:56시(UTC)에 발표되었습니다.
남남동3kt
온도 3°C
습도 75%
기압 1014 hPa
시정: 16.1km
고도 12000ft 상공 흐림

METAR: KEGE 210856Z AUTO 15003KT 10SM OVC120 03/M01 A2994 RMK AO2 SLP108 T00331011 58002

시각: 03:17 (09:17 UTC)

예보

예보는 3 시간 50분 전, 05:27시(UTC)에 발표되었습니다.
예보 대상 시간: 21일 06시부터 22일 06시까지 (UTC)
여러 방향의 바람 4kt
시정: 10km
고도 7000ft 상공 구름 조금
고도 15000ft 상공 구름 보통
21일 1100시부터 (UTC)
kt
시정: 10km
고도 8000ft 상공 구름 보통
고도 10000ft 상공 구름 많음
21일 1400시부터 (UTC)
kt
시정: 10km
고도 7000ft 상공 구름 보통
고도 10000ft 상공 구름 많음
시계 내 소나기
21일 2100시부터 (UTC)
남서10kt
시정: 10km
고도 7000ft 상공 구름 보통
고도 10000ft 상공 구름 많음
시계 내 소나기
21일 2300시부터 (UTC)
서남서9kt
시정: 10km
고도 8000ft 상공 구름 보통
고도 10000ft 상공 구름 많음

TAF: KEGE 210527Z 2106/2206 VRB04KT P6SM FEW070 SCT150 FM211100 00000KT P6SM SCT080 BKN100 FM211400 00000KT P6SM VCSH SCT070 BKN100 FM212100 23010KT P6SM VCSH SCT070 BKN100 FM212300 24009KT P6SM SCT080 BKN100

4,000개 이상의 공항 관측 자료 및 예보 (METAR 및 TAF 보고).

지도상에서 검색 가능한 기상관측소가 노란 점과 빨간 점으로 표시되어 있습니다.

기상관측소 명을 보려면 표시 위로 마우스를 이동하세요.

날씨 관측과 예보를 보려면 클릭하세요.

지도 변경 : 확대하려면 엑스 표시가 있는 녹색 버튼, 축소하려면 빼기 표시가 있는 녹색 버튼, 다음 페이지의 지도를 보려면 녹색 화살표를 클릭하세요.


METAR-TAF: